createdAt,value
2023-02-17T00:00:56.546Z,50.15
2023-02-17T00:03:24.951Z,56.03
2023-02-17T00:05:53.186Z,53.17
2023-02-17T00:08:20.445Z,55.88
2023-02-17T00:10:58.295Z,52.97
2023-02-17T00:13:25.988Z,54.25
2023-02-17T00:15:53.406Z,51.10
2023-02-17T00:18:20.745Z,48.85
2023-02-17T00:20:47.886Z,51.20
2023-02-17T00:23:15.065Z,53.33
2023-02-17T00:25:42.225Z,56.15
2023-02-17T00:28:09.434Z,62.70
2023-02-17T00:30:39.417Z,61.53
2023-02-17T00:33:06.687Z,57.83
2023-02-17T00:35:33.917Z,58.38
2023-02-17T00:38:01.163Z,65.68
2023-02-17T00:40:28.264Z,64.95
2023-02-17T00:42:55.554Z,59.08
2023-02-17T00:45:22.727Z,62.70
2023-02-17T00:47:49.915Z,57.72
2023-02-17T00:50:17.527Z,59.97
2023-02-17T00:52:44.756Z,66.90
2023-02-17T00:55:12.217Z,64.93
2023-02-17T00:57:39.404Z,58.17
2023-02-17T01:00:07.214Z,60.88
2023-02-17T01:02:34.597Z,64.68
2023-02-17T01:05:01.742Z,58.17
2023-02-17T01:07:28.929Z,57.88
2023-02-17T01:09:56.087Z,56.95
2023-02-17T01:12:23.357Z,61.22
2023-02-17T01:14:52.046Z,57.53
2023-02-17T01:17:19.293Z,60.67
2023-02-17T01:19:46.722Z,63.80
2023-02-17T01:22:14.163Z,59.40
2023-02-17T01:24:41.313Z,57.10
2023-02-17T01:27:08.554Z,58.67
2023-02-17T01:29:35.752Z,57.35
2023-02-17T01:32:04.089Z,65.03
2023-02-17T01:34:31.349Z,60.03
2023-02-17T01:36:59.635Z,51.35
2023-02-17T01:39:26.806Z,57.78
2023-02-17T01:41:53.991Z,56.70
2023-02-17T01:44:24.090Z,57.28
2023-02-17T01:46:53.735Z,60.00
2023-02-17T01:49:22.048Z,53.40
2023-02-17T01:52:02.490Z,53.70
2023-02-17T01:54:36.142Z,56.85
2023-02-17T01:57:03.943Z,41.47
2023-02-17T01:59:32.351Z,52.03
2023-02-17T02:02:03.034Z,50.60
2023-02-17T02:04:33.889Z,48.60
2023-02-17T02:07:04.338Z,52.30
2023-02-17T02:09:36.660Z,49.95
2023-02-17T02:12:15.955Z,51.72
2023-02-17T02:14:46.362Z,50.13
2023-02-17T02:17:27.417Z,50.67
2023-02-17T02:19:57.972Z,49.72
2023-02-17T02:22:45.107Z,53.13
2023-02-17T02:25:32.150Z,54.70
2023-02-17T02:28:30.859Z,50.42
2023-02-17T02:31:19.787Z,52.50
2023-02-17T02:33:59.026Z,50.05
2023-02-17T02:36:33.227Z,47.42
2023-02-17T02:39:03.343Z,46.00
2023-02-17T02:41:37.971Z,45.95
2023-02-17T02:44:08.350Z,44.38
2023-02-17T02:46:35.975Z,49.45
2023-02-17T02:49:04.808Z,57.08
2023-02-17T02:51:51.432Z,46.05
2023-02-17T02:54:40.307Z,45.97
2023-02-17T02:57:27.641Z,50.15
2023-02-17T03:00:10.476Z,49.13
2023-02-17T03:02:59.597Z,45.45
2023-02-17T03:05:27.930Z,43.13
2023-02-17T03:07:58.641Z,44.35
2023-02-17T03:10:26.187Z,47.05
2023-02-17T03:12:53.548Z,52.58
2023-02-17T03:15:28.289Z,48.15
2023-02-17T03:17:58.298Z,46.35
2023-02-17T03:20:27.872Z,51.38
2023-02-17T03:22:55.362Z,47.40
2023-02-17T03:25:24.550Z,39.67
2023-02-17T03:27:51.810Z,50.63
2023-02-17T03:30:19.365Z,44.95
2023-02-17T03:32:47.192Z,47.75
2023-02-17T03:35:14.732Z,46.95
2023-02-17T03:37:42.100Z,40.63
2023-02-17T03:40:09.778Z,40.58
2023-02-17T03:42:36.952Z,45.00
2023-02-17T03:45:05.689Z,38.75
2023-02-17T03:47:32.819Z,44.00
2023-02-17T03:49:59.991Z,47.13
2023-02-17T03:52:27.188Z,43.00
2023-02-17T03:54:54.392Z,43.45
2023-02-17T03:57:21.521Z,42.15
2023-02-17T03:59:48.650Z,38.38
2023-02-17T04:02:15.783Z,37.88
2023-02-17T04:04:43.001Z,37.78
2023-02-17T04:07:10.079Z,39.95
2023-02-17T04:09:37.299Z,40.83
2023-02-17T04:12:05.271Z,41.40
2023-02-17T04:14:32.449Z,41.80
2023-02-17T04:16:59.748Z,40.08
2023-02-17T04:19:26.953Z,40.40
2023-02-17T04:21:54.131Z,46.20
2023-02-17T04:24:21.519Z,41.20
2023-02-17T04:26:48.770Z,40.15
2023-02-17T04:29:15.958Z,36.40
2023-02-17T04:31:43.126Z,36.17
2023-02-17T04:34:10.337Z,41.35
2023-02-17T04:36:37.506Z,41.78
2023-02-17T04:39:04.596Z,39.33
2023-02-17T04:41:31.739Z,39.03
2023-02-17T04:43:58.891Z,40.42
2023-02-17T04:46:26.044Z,41.58
2023-02-17T04:48:53.504Z,41.78
2023-02-17T04:51:20.704Z,40.45
2023-02-17T04:53:48.167Z,36.22
2023-02-17T04:56:15.455Z,40.03
2023-02-17T04:58:42.848Z,39.83
2023-02-17T05:01:10.084Z,36.83
2023-02-17T05:03:37.395Z,35.90
2023-02-17T05:06:05.132Z,36.92
2023-02-17T05:08:32.543Z,38.67
2023-02-17T05:10:59.670Z,33.80
2023-02-17T05:13:27.773Z,40.17
2023-02-17T05:15:55.083Z,40.58
2023-02-17T05:18:22.396Z,38.50
2023-02-17T05:20:49.482Z,40.13
2023-02-17T05:23:17.106Z,35.25
2023-02-17T05:25:44.280Z,34.25
2023-02-17T05:28:11.594Z,36.85
2023-02-17T05:30:38.734Z,33.17
2023-02-17T05:33:05.934Z,35.58
2023-02-17T05:35:35.430Z,38.25
2023-02-17T05:38:02.566Z,36.90
2023-02-17T05:40:29.812Z,38.67
2023-02-17T05:42:56.977Z,46.03
2023-02-17T05:45:24.235Z,43.92
2023-02-17T05:47:51.460Z,41.95
2023-02-17T05:50:18.639Z,42.50
2023-02-17T05:52:49.213Z,37.03
2023-02-17T05:55:16.541Z,38.65
2023-02-17T05:57:43.742Z,41.00
2023-02-17T06:00:11.508Z,40.45
2023-02-17T06:02:39.894Z,37.58
2023-02-17T06:05:08.164Z,33.85
2023-02-17T06:07:35.416Z,30.90
2023-02-17T06:10:03.006Z,32.00
2023-02-17T06:12:30.241Z,34.38
2023-02-17T06:14:57.375Z,39.13
2023-02-17T06:17:24.519Z,38.20
2023-02-17T06:19:51.680Z,31.00
2023-02-17T06:22:18.865Z,36.80
2023-02-17T06:24:45.991Z,33.38
2023-02-17T06:27:13.223Z,40.38
2023-02-17T06:29:40.374Z,50.08
2023-02-17T06:32:07.815Z,48.15
2023-02-17T06:34:35.015Z,40.33
2023-02-17T06:37:02.183Z,48.80
2023-02-17T06:39:29.441Z,47.35
2023-02-17T06:41:56.681Z,42.63
2023-02-17T06:44:23.804Z,45.92
2023-02-17T06:46:51.028Z,36.22
2023-02-17T06:49:18.508Z,36.83
2023-02-17T06:51:45.848Z,35.72
2023-02-17T06:54:13.214Z,33.40
2023-02-17T06:56:40.790Z,40.97
2023-02-17T06:59:07.933Z,47.90
2023-02-17T07:01:35.166Z,37.08
2023-02-17T07:04:02.367Z,36.40
2023-02-17T07:06:29.808Z,36.30
2023-02-17T07:08:57.268Z,36.17
2023-02-17T07:11:24.607Z,30.88
2023-02-17T07:13:52.778Z,35.50
2023-02-17T07:16:20.013Z,28.33
2023-02-17T07:18:47.270Z,28.98
2023-02-17T07:21:15.267Z,25.33
2023-02-17T07:23:42.599Z,25.50
2023-02-17T07:26:11.835Z,24.73
2023-02-17T07:28:40.356Z,25.60
2023-02-17T07:31:09.677Z,27.42
2023-02-17T07:33:37.562Z,25.25
2023-02-17T07:36:07.755Z,28.67
2023-02-17T07:38:36.021Z,25.60
2023-02-17T07:41:08.457Z,26.17
2023-02-17T07:43:36.272Z,26.85
2023-02-17T07:46:05.440Z,30.30
2023-02-17T07:48:32.765Z,25.38
2023-02-17T07:51:19.185Z,25.20
2023-02-17T07:53:46.544Z,27.13
2023-02-17T07:56:15.771Z,22.75
2023-02-17T07:58:44.438Z,24.10
2023-02-17T08:01:15.294Z,24.35
2023-02-17T08:03:43.244Z,27.25
2023-02-17T08:06:13.475Z,27.52
2023-02-17T08:09:01.233Z,19.80
2023-02-17T08:11:49.803Z,22.60
2023-02-17T08:14:18.018Z,21.27
2023-02-17T08:16:45.324Z,19.40
2023-02-17T08:19:12.625Z,20.90
2023-02-17T08:21:40.206Z,27.13
2023-02-17T08:24:07.474Z,24.63
2023-02-17T08:26:34.650Z,23.27
2023-02-17T08:29:01.804Z,22.08
2023-02-17T08:31:32.460Z,21.23
2023-02-17T08:34:02.051Z,24.15
2023-02-17T08:36:30.027Z,20.45
2023-02-17T08:38:58.360Z,18.48
2023-02-17T08:41:25.477Z,19.05
2023-02-17T08:43:52.956Z,21.10
2023-02-17T08:46:20.601Z,17.20
2023-02-17T08:48:48.232Z,19.25
2023-02-17T08:51:19.179Z,20.10
2023-02-17T08:53:47.025Z,18.30
2023-02-17T08:56:14.170Z,22.10
2023-02-17T08:58:41.407Z,19.83
2023-02-17T09:01:08.877Z,20.08
2023-02-17T09:03:37.845Z,22.13
2023-02-17T09:06:07.127Z,21.92
2023-02-17T09:08:34.933Z,21.55
2023-02-17T09:11:02.189Z,18.48
2023-02-17T09:13:29.449Z,17.15
2023-02-17T09:15:56.756Z,21.50
2023-02-17T09:18:24.535Z,18.42
2023-02-17T09:20:52.391Z,18.48
2023-02-17T09:23:20.372Z,20.00
2023-02-17T09:25:47.733Z,18.38
2023-02-17T09:28:15.555Z,17.85
2023-02-17T09:30:43.281Z,17.13
2023-02-17T09:33:10.630Z,14.95
2023-02-17T09:35:38.300Z,13.20
2023-02-17T09:38:05.858Z,14.50
2023-02-17T09:40:50.304Z,15.30
2023-02-17T09:43:30.594Z,13.70
2023-02-17T09:46:02.430Z,13.70
2023-02-17T09:48:32.788Z,14.10
2023-02-17T09:51:06.812Z,14.23
2023-02-17T09:56:11.637Z,16.35
2023-02-17T09:58:58.081Z,16.20
2023-02-17T10:01:31.046Z,18.42
2023-02-17T10:04:01.662Z,18.50
2023-02-17T10:06:35.995Z,15.07
2023-02-17T10:09:04.308Z,17.75
2023-02-17T10:11:34.685Z,13.80
2023-02-17T10:14:27.534Z,15.75
2023-02-17T10:17:04.108Z,15.88
2023-02-17T10:19:38.891Z,16.85
2023-02-17T10:22:10.616Z,16.85
2023-02-17T10:24:37.817Z,17.02
2023-02-17T10:27:12.417Z,19.08
2023-02-17T10:30:01.549Z,18.92
2023-02-17T10:32:30.575Z,18.50
2023-02-17T10:35:01.950Z,20.00
2023-02-17T10:37:46.053Z,20.42
2023-02-17T10:40:23.041Z,16.85
2023-02-17T10:42:56.204Z,14.80
2023-02-17T10:45:43.903Z,18.63
2023-02-17T10:48:18.195Z,16.00
2023-02-17T10:50:48.172Z,19.27
2023-02-17T10:53:20.727Z,19.48
2023-02-17T10:56:02.829Z,22.33
2023-02-17T10:58:34.207Z,21.85
2023-02-17T11:01:04.912Z,21.05
2023-02-17T11:03:34.576Z,21.00
2023-02-17T11:06:05.324Z,20.17
2023-02-17T11:08:46.194Z,18.55
2023-02-17T11:11:25.003Z,18.42
2023-02-17T11:14:18.146Z,18.58
2023-02-17T11:16:51.577Z,20.63
2023-02-17T11:19:36.172Z,21.77
2023-02-17T11:22:07.482Z,20.40
2023-02-17T11:24:35.971Z,22.65
2023-02-17T11:27:09.023Z,22.80
2023-02-17T11:29:37.161Z,20.85
2023-02-17T11:32:09.383Z,21.48
2023-02-17T11:34:39.304Z,21.05
2023-02-17T11:37:14.315Z,25.67
2023-02-17T11:39:45.223Z,20.88
2023-02-17T11:42:24.220Z,24.65
2023-02-17T11:44:54.265Z,24.25
2023-02-17T11:47:35.212Z,21.77
2023-02-17T11:50:40.762Z,19.88
2023-02-17T11:53:38.419Z,23.10
2023-02-17T11:56:08.663Z,19.17
2023-02-17T11:58:50.225Z,18.45
2023-02-17T12:01:41.951Z,22.75
2023-02-17T12:04:22.071Z,23.38
2023-02-17T12:07:14.053Z,23.63
2023-02-17T12:10:03.345Z,22.70
2023-02-17T12:12:51.179Z,25.00
2023-02-17T12:15:54.534Z,23.48
2023-02-17T12:18:21.835Z,22.10
2023-02-17T12:21:19.042Z,26.20
2023-02-17T12:23:55.250Z,22.92
2023-02-17T12:26:45.988Z,29.02
2023-02-17T12:29:30.291Z,27.58
2023-02-17T12:32:09.338Z,25.88
2023-02-17T12:34:40.078Z,24.55
2023-02-17T12:37:17.884Z,28.33
2023-02-17T12:39:54.995Z,25.85
2023-02-17T12:42:30.332Z,25.98
2023-02-17T12:45:04.177Z,26.23
2023-02-17T12:47:56.871Z,27.15
2023-02-17T12:50:28.105Z,26.83
2023-02-17T12:53:01.099Z,25.42
2023-02-17T12:55:50.575Z,23.67
2023-02-17T12:58:22.800Z,23.90
2023-02-17T13:00:55.616Z,25.33
2023-02-17T13:03:23.310Z,25.25
2023-02-17T13:06:09.525Z,26.08
2023-02-17T13:08:47.210Z,29.98
2023-02-17T13:11:28.297Z,26.30
2023-02-17T13:13:55.516Z,27.55
2023-02-17T13:16:23.398Z,25.75
2023-02-17T13:18:52.345Z,29.52
2023-02-17T13:21:20.741Z,26.13
2023-02-17T13:24:00.661Z,29.10
2023-02-17T13:26:31.787Z,28.25
2023-02-17T13:29:26.447Z,29.33
2023-02-17T13:31:56.952Z,25.85
2023-02-17T13:34:35.090Z,23.17
2023-02-17T13:37:23.727Z,21.65
2023-02-17T13:39:51.242Z,24.35
2023-02-17T13:42:39.968Z,23.38
2023-02-17T13:45:28.562Z,24.17
2023-02-17T13:48:19.810Z,22.17
2023-02-17T13:50:54.994Z,24.40
2023-02-17T13:53:40.597Z,27.98
2023-02-17T13:56:12.578Z,27.70
2023-02-17T13:58:42.173Z,26.77
2023-02-17T14:01:15.830Z,29.35
2023-02-17T14:03:50.927Z,30.27
2023-02-17T14:06:26.655Z,31.80
2023-02-17T14:08:54.391Z,33.42
2023-02-17T14:11:25.967Z,33.67
2023-02-17T14:13:56.046Z,26.90
2023-02-17T14:16:31.922Z,28.95
2023-02-17T14:19:08.187Z,32.45
2023-02-17T14:21:38.397Z,29.95
2023-02-17T14:24:06.292Z,30.45
2023-02-17T14:26:49.105Z,26.63
2023-02-17T14:29:16.953Z,27.10
2023-02-17T14:31:48.016Z,30.27
2023-02-17T14:34:27.183Z,30.33
2023-02-17T14:36:55.184Z,32.17
2023-02-17T14:39:22.419Z,29.77
2023-02-17T14:41:49.770Z,25.00
2023-02-17T14:44:16.986Z,27.50
2023-02-17T14:46:44.269Z,25.75
2023-02-17T14:49:11.363Z,25.70
2023-02-17T14:51:39.510Z,29.50
2023-02-17T14:54:14.576Z,23.67
2023-02-17T14:57:03.720Z,26.55
2023-02-17T14:59:31.003Z,23.98
2023-02-17T15:01:58.393Z,28.80
2023-02-17T15:04:25.664Z,28.83
2023-02-17T15:06:54.926Z,32.78
2023-02-17T15:09:29.692Z,29.63
2023-02-17T15:11:57.946Z,27.88
2023-02-17T15:14:25.209Z,23.55
2023-02-17T15:16:52.529Z,24.30
2023-02-17T15:19:20.128Z,23.10
2023-02-17T15:21:51.731Z,26.15
2023-02-17T15:24:26.459Z,22.00
2023-02-17T15:26:56.631Z,24.98
2023-02-17T15:29:25.549Z,23.70
2023-02-17T15:31:55.310Z,24.15
2023-02-17T15:34:26.370Z,25.08
2023-02-17T15:36:53.734Z,28.77
2023-02-17T15:39:22.606Z,26.50
2023-02-17T15:41:51.726Z,28.13
2023-02-17T15:44:26.305Z,30.80
2023-02-17T15:49:22.735Z,31.10
2023-02-17T15:51:50.125Z,29.80
2023-02-17T15:54:19.525Z,26.30
2023-02-17T15:56:51.004Z,31.42
2023-02-17T15:59:23.766Z,27.00
2023-02-17T16:01:51.007Z,28.38
2023-02-17T16:04:18.850Z,26.60
2023-02-17T16:06:46.554Z,29.75
2023-02-17T16:09:14.606Z,25.55
2023-02-17T16:11:52.026Z,26.88
2023-02-17T16:14:34.373Z,24.15
2023-02-17T16:17:03.260Z,26.20
2023-02-17T16:19:31.783Z,26.08
2023-02-17T16:21:59.720Z,25.33
2023-02-17T16:24:27.057Z,25.92
2023-02-17T16:26:54.369Z,23.80
2023-02-17T16:29:22.547Z,25.45
2023-02-17T16:31:50.618Z,30.13
2023-02-17T16:34:21.488Z,28.52
2023-02-17T16:36:52.515Z,26.83
2023-02-17T16:39:21.772Z,32.33
2023-02-17T16:41:49.896Z,30.55
2023-02-17T16:44:19.250Z,29.13
2023-02-17T16:46:49.764Z,29.25
2023-02-17T16:49:24.791Z,29.83
2023-02-17T16:51:52.960Z,33.83
2023-02-17T16:54:20.458Z,28.40
2023-02-17T16:56:51.012Z,29.83
2023-02-17T16:59:21.435Z,30.00
2023-02-17T17:01:51.168Z,33.83
2023-02-17T17:04:19.096Z,29.83
2023-02-17T17:06:49.596Z,28.05
2023-02-17T17:09:21.428Z,28.70
2023-02-17T17:11:48.933Z,44.30
2023-02-17T17:14:16.821Z,31.70
2023-02-17T17:16:49.773Z,24.25
2023-02-17T17:19:17.400Z,33.05
2023-02-17T17:21:44.605Z,33.10
2023-02-17T17:24:11.924Z,24.90
2023-02-17T17:26:44.847Z,22.33
2023-02-17T17:29:14.095Z,25.13
2023-02-17T17:31:41.378Z,22.23
2023-02-17T17:34:08.761Z,23.73
2023-02-17T17:36:39.386Z,24.77
2023-02-17T17:39:08.523Z,30.10
2023-02-17T17:41:35.695Z,27.65
2023-02-17T17:44:03.363Z,27.67
2023-02-17T17:46:34.488Z,28.80
2023-02-17T17:49:02.102Z,27.08
2023-02-17T17:51:31.288Z,27.88
2023-02-17T17:53:58.513Z,25.58
2023-02-17T17:56:29.466Z,21.50
2023-02-17T17:58:58.557Z,23.58
2023-02-17T18:01:26.900Z,21.20
2023-02-17T18:03:54.755Z,29.52
2023-02-17T18:06:26.269Z,24.90
2023-02-17T18:08:56.770Z,27.55
2023-02-17T18:11:25.006Z,26.60
2023-02-17T18:13:56.658Z,28.77
2023-02-17T18:16:26.417Z,27.30
2023-02-17T18:18:54.732Z,31.40
2023-02-17T18:21:21.961Z,38.92
2023-02-17T18:23:49.159Z,53.45
2023-02-17T18:26:17.135Z,45.45
2023-02-17T18:28:45.184Z,45.53
2023-02-17T18:31:14.875Z,45.25
2023-02-17T18:33:42.228Z,39.53
2023-02-17T18:36:13.199Z,46.30
2023-02-17T18:38:41.177Z,31.10
2023-02-17T18:41:09.501Z,33.53
2023-02-17T18:43:37.140Z,42.38
2023-02-17T18:46:04.843Z,36.55
2023-02-17T18:48:32.630Z,58.70
2023-02-17T18:50:59.863Z,43.88
2023-02-17T18:53:28.234Z,39.58
2023-02-17T18:55:55.668Z,48.83
2023-02-17T18:58:23.193Z,47.58
2023-02-17T19:00:50.624Z,63.95
2023-02-17T19:03:17.910Z,66.20
2023-02-17T19:05:45.319Z,50.50
2023-02-17T19:08:12.669Z,44.17
2023-02-17T19:10:40.014Z,39.22
2023-02-17T19:13:07.853Z,39.70
2023-02-17T19:15:36.089Z,32.67
2023-02-17T19:18:03.817Z,34.55
2023-02-17T19:20:32.388Z,32.92
2023-02-17T19:23:02.912Z,34.63
2023-02-17T19:25:30.643Z,33.17
2023-02-17T19:27:58.352Z,34.13
2023-02-17T19:30:25.736Z,32.38
2023-02-17T19:32:53.744Z,32.40
2023-02-17T19:35:21.113Z,34.28
2023-02-17T19:37:48.579Z,35.10
2023-02-17T19:40:15.826Z,35.42
2023-02-17T19:42:43.635Z,31.30
2023-02-17T19:45:10.831Z,35.33
2023-02-17T19:47:38.634Z,29.85
2023-02-17T19:50:06.758Z,31.17
2023-02-17T19:52:34.292Z,30.48
2023-02-17T19:55:01.668Z,28.35
2023-02-17T19:57:29.907Z,29.10
2023-02-17T19:59:57.316Z,32.95
2023-02-17T20:02:24.608Z,31.42
2023-02-17T20:04:52.430Z,28.80
2023-02-17T20:07:19.870Z,29.17
2023-02-17T20:09:47.748Z,28.17
2023-02-17T20:12:15.162Z,25.25
2023-02-17T20:14:42.903Z,28.20
2023-02-17T20:17:10.375Z,27.55
2023-02-17T20:19:39.428Z,30.85
2023-02-17T20:22:08.102Z,27.98
2023-02-17T20:24:36.977Z,26.88
2023-02-17T20:27:04.430Z,26.77
2023-02-17T20:29:31.866Z,30.17
2023-02-17T20:31:59.169Z,30.50
2023-02-17T20:34:32.165Z,32.90
2023-02-17T20:36:59.896Z,33.03
2023-02-17T20:39:27.708Z,28.27
2023-02-17T20:41:56.573Z,32.17
2023-02-17T20:44:27.769Z,27.10
2023-02-17T20:46:56.233Z,24.95
2023-02-17T20:49:24.184Z,27.02
2023-02-17T20:51:51.513Z,25.48
2023-02-17T20:54:18.993Z,30.27
2023-02-17T20:56:47.649Z,29.98
2023-02-17T20:59:15.371Z,28.42
2023-02-17T21:01:43.492Z,27.33
2023-02-17T21:04:11.230Z,25.48
2023-02-17T21:06:41.469Z,30.35
2023-02-17T21:09:14.427Z,30.00
2023-02-17T21:11:42.354Z,29.40
2023-02-17T21:14:10.113Z,28.08
2023-02-17T21:16:37.662Z,27.50
2023-02-17T21:19:05.201Z,27.90
2023-02-17T21:21:33.627Z,29.55
2023-02-17T21:24:00.939Z,31.05
2023-02-17T21:26:28.634Z,30.65
2023-02-17T21:28:55.800Z,31.08
2023-02-17T21:31:23.557Z,27.05
2023-02-17T21:33:50.748Z,27.13
2023-02-17T21:36:19.752Z,24.55
2023-02-17T21:38:48.271Z,24.42
2023-02-17T21:41:19.278Z,25.83
2023-02-17T21:44:06.924Z,23.80
2023-02-17T21:46:34.890Z,21.45
2023-02-17T21:49:02.518Z,23.58
2023-02-17T21:51:30.108Z,25.67
2023-02-17T21:53:58.089Z,21.48
2023-02-17T21:56:25.604Z,20.00
2023-02-17T21:58:55.208Z,21.80
2023-02-17T22:01:24.293Z,21.75
2023-02-17T22:03:52.213Z,25.73
2023-02-17T22:06:20.538Z,23.30
2023-02-17T22:08:48.370Z,25.75
2023-02-17T22:11:18.163Z,24.27
2023-02-17T22:13:45.897Z,30.50
2023-02-17T22:16:13.593Z,25.55
2023-02-17T22:18:41.524Z,25.35
2023-02-17T22:21:11.231Z,25.25
2023-02-17T22:23:38.982Z,28.75
2023-02-17T22:26:09.484Z,25.73
2023-02-17T22:28:37.588Z,27.80
2023-02-17T22:31:06.035Z,25.52
2023-02-17T22:33:33.914Z,25.33
2023-02-17T22:36:05.082Z,25.55
2023-02-17T22:38:33.415Z,25.83
2023-02-17T22:41:00.828Z,22.42
2023-02-17T22:43:28.303Z,27.05
2023-02-17T22:45:59.960Z,26.10
2023-02-17T22:48:29.136Z,31.00
2023-02-17T22:50:56.532Z,29.70
2023-02-17T22:53:24.215Z,30.90
2023-02-17T22:55:53.943Z,30.60
2023-02-17T22:58:22.309Z,35.88
2023-02-17T23:00:49.782Z,32.88
2023-02-17T23:03:18.248Z,33.92
2023-02-17T23:05:47.024Z,33.45
2023-02-17T23:08:14.207Z,39.83
2023-02-17T23:10:43.037Z,41.55
2023-02-17T23:13:10.959Z,38.30
2023-02-17T23:15:41.608Z,38.05
2023-02-17T23:18:13.226Z,40.40
2023-02-17T23:20:43.032Z,38.10
2023-02-17T23:23:11.431Z,44.25
2023-02-17T23:25:41.369Z,39.88
2023-02-17T23:28:08.887Z,40.75
2023-02-17T23:30:36.193Z,40.20
2023-02-17T23:33:03.580Z,37.72
2023-02-17T23:35:30.732Z,35.80
2023-02-17T23:37:57.960Z,39.67
2023-02-17T23:40:25.167Z,35.97
2023-02-17T23:42:52.432Z,36.85
2023-02-17T23:45:19.586Z,30.10
2023-02-17T23:47:46.865Z,32.80
2023-02-17T23:50:16.763Z,34.50
2023-02-17T23:52:44.499Z,38.42
2023-02-17T23:55:11.669Z,38.70
2023-02-17T23:57:39.929Z,39.22
